createdAt,value
2017-11-24T00:07:07.000Z,41.7
2017-11-24T00:17:07.000Z,41.8
2017-11-24T00:27:07.000Z,42.1
2017-11-24T00:47:07.000Z,43
2017-11-24T00:57:07.000Z,42.8
2017-11-24T01:07:07.000Z,42.8
2017-11-24T01:17:07.000Z,42.4
2017-11-24T01:27:07.000Z,42.7
2017-11-24T01:37:07.000Z,42.6
2017-11-24T01:47:07.000Z,42.8
2017-11-24T01:57:08.000Z,43.3
2017-11-24T02:07:07.000Z,43.5
2017-11-24T02:17:07.000Z,43.5
2017-11-24T02:27:07.000Z,43.3
2017-11-24T02:37:07.000Z,43.6
2017-11-24T02:47:08.000Z,43.5
2017-11-24T02:57:07.000Z,43.4
2017-11-24T03:07:07.000Z,42.8
2017-11-24T03:17:07.000Z,42.7
2017-11-24T03:27:08.000Z,43.2
2017-11-24T03:37:08.000Z,44.5
2017-11-24T03:47:08.000Z,45.2
2017-11-24T03:57:08.000Z,45.9
2017-11-24T04:07:08.000Z,46.2
2017-11-24T04:17:08.000Z,46.7
2017-11-24T04:27:10.000Z,47.1
2017-11-24T04:37:08.000Z,47.5
2017-11-24T04:47:08.000Z,48.5
2017-11-24T04:57:12.000Z,48.2
2017-11-24T05:07:12.000Z,48
2017-11-24T05:17:08.000Z,48.2
2017-11-24T05:27:08.000Z,48.4
2017-11-24T05:37:08.000Z,48.9
2017-11-24T05:47:08.000Z,48.8
2017-11-24T05:57:08.000Z,49.2
2017-11-24T06:07:08.000Z,50.7
2017-11-24T06:17:08.000Z,51.5
2017-11-24T06:27:08.000Z,52.9
2017-11-24T06:37:08.000Z,53.2
2017-11-24T06:47:08.000Z,52.7
2017-11-24T06:57:08.000Z,53.2
2017-11-24T07:07:08.000Z,53.1
2017-11-24T07:17:08.000Z,53.2
2017-11-24T07:27:09.000Z,53.2
2017-11-24T07:37:08.000Z,53
2017-11-24T07:47:08.000Z,53.7
2017-11-24T07:57:08.000Z,53.7
2017-11-24T08:07:08.000Z,54.1
2017-11-24T08:17:08.000Z,54.3
2017-11-24T08:27:08.000Z,54.5
2017-11-24T08:37:08.000Z,54.6
2017-11-24T08:47:08.000Z,54.6
2017-11-24T08:57:08.000Z,55.2
2017-11-24T09:07:08.000Z,55.4
2017-11-24T09:17:08.000Z,56.3
2017-11-24T09:27:08.000Z,55.8
2017-11-24T09:37:08.000Z,55.4
2017-11-24T09:47:08.000Z,56
2017-11-24T09:57:08.000Z,56
2017-11-24T10:07:08.000Z,54.8
2017-11-24T10:27:09.000Z,55.6
2017-11-24T10:37:09.000Z,54.5
2017-11-24T10:47:09.000Z,55.6
2017-11-24T10:57:09.000Z,56.1
2017-11-24T11:07:09.000Z,56.5
2017-11-24T11:17:09.000Z,56.4
2017-11-24T11:27:09.000Z,56.3
2017-11-24T11:37:09.000Z,56.6
2017-11-24T11:47:09.000Z,56.7
2017-11-24T11:57:09.000Z,56.7
2017-11-24T12:07:09.000Z,56.5
2017-11-24T12:17:09.000Z,56.6
2017-11-24T12:27:09.000Z,56.5
2017-11-24T12:37:09.000Z,57.8
2017-11-24T12:47:09.000Z,58.3
2017-11-24T12:57:09.000Z,57.9
2017-11-24T13:07:09.000Z,57.3
2017-11-24T13:17:09.000Z,58.1
2017-11-24T13:27:09.000Z,58.1
2017-11-24T13:37:09.000Z,58.1
2017-11-24T13:47:09.000Z,58.3
2017-11-24T13:57:09.000Z,57.3
2017-11-24T14:07:09.000Z,57.8
2017-11-24T14:17:10.000Z,58
2017-11-24T14:27:09.000Z,57
2017-11-24T14:37:09.000Z,57
2017-11-24T14:47:09.000Z,57
2017-11-24T14:57:09.000Z,57
2017-11-24T15:07:09.000Z,57.1
2017-11-24T15:17:09.000Z,57.1
2017-11-24T15:27:09.000Z,56.9
2017-11-24T15:37:09.000Z,57.2
2017-11-24T15:47:09.000Z,57.3
2017-11-24T15:57:09.000Z,57.3
2017-11-24T16:07:09.000Z,57.4
2017-11-24T16:17:09.000Z,57.4
2017-11-24T16:27:09.000Z,57.2
2017-11-24T16:37:09.000Z,57.3
2017-11-24T16:47:09.000Z,57.2
2017-11-24T16:57:10.000Z,57.2
2017-11-24T17:07:10.000Z,57.1
2017-11-24T17:27:10.000Z,57.2
2017-11-24T17:37:10.000Z,56.9
2017-11-24T17:47:10.000Z,56.9
2017-11-24T17:57:10.000Z,56.8
2017-11-24T18:07:10.000Z,57
2017-11-24T18:17:10.000Z,57
2017-11-24T18:27:10.000Z,56.9
2017-11-24T18:37:10.000Z,56.8
2017-11-24T18:47:10.000Z,56.8
2017-11-24T18:57:10.000Z,56.7
2017-11-24T19:07:10.000Z,56.5
2017-11-24T19:17:10.000Z,56.5
2017-11-24T19:27:11.000Z,56.6
2017-11-24T19:37:10.000Z,56.6
2017-11-24T19:47:10.000Z,56.6
2017-11-24T20:07:10.000Z,56.6
2017-11-24T20:17:10.000Z,56.7
2017-11-24T20:27:10.000Z,56.6
2017-11-24T20:37:10.000Z,56.7
2017-11-24T20:47:10.000Z,56.7
2017-11-24T20:57:12.000Z,56.8
2017-11-24T21:07:10.000Z,56.8
2017-11-24T21:17:10.000Z,56.7
2017-11-24T21:27:10.000Z,56.8
2017-11-24T21:37:10.000Z,56.8
2017-11-24T21:47:10.000Z,55.9
2017-11-24T21:57:10.000Z,56.4
2017-11-24T22:07:10.000Z,56.6
2017-11-24T22:17:10.000Z,56.7
2017-11-24T22:27:14.000Z,56.7
2017-11-24T22:37:10.000Z,56.9
2017-11-24T22:47:10.000Z,56.9
2017-11-24T22:57:10.000Z,56.8
2017-11-24T23:07:10.000Z,55.7
2017-11-24T23:17:10.000Z,55.5
2017-11-24T23:27:10.000Z,55.5
2017-11-24T23:37:11.000Z,55.5
2017-11-24T23:47:10.000Z,55.6
2017-11-24T23:57:11.000Z,55.8
